Freiburg i. Br. Airport EDTF

Flugplatz Daten

Name: Freiburg i. Br. Airport

Ident: EDTF

Lat: 48,02277756

Long: 7,832499981

Platzhöhe: 801 ft

IataCode:

City: Freiburg im Breisgau

Metar

2019/07/05 19:00
EDTF 051900Z 15011KT 8000 NSC 37/10 Q1011

Taf

Gewünschte Webcam nicht vorhanden? Dann fügen Sie eine hinzu. Sie wird dann so schnell wie möglich freigeschaltet
Url: Title: